sensor_id;sensor_type;location;lat;lon;timestamp;P1;durP1;ratioP1;P2;durP2;ratioP2
63316;SDS011;49822;41.468;13.560;2023-11-22T00:01:57;76.32;;;29.25;;
63316;SDS011;49822;41.468;13.560;2023-11-22T00:04:23;75.10;;;29.25;;
63316;SDS011;49822;41.468;13.560;2023-11-22T00:06:50;79.53;;;32.55;;
63316;SDS011;49822;41.468;13.560;2023-11-22T00:09:16;20.58;;;6.30;;
63316;SDS011;49822;41.468;13.560;2023-11-22T00:11:47;14.30;;;4.20;;
63316;SDS011;49822;41.468;13.560;2023-11-22T00:14:14;14.65;;;4.03;;
63316;SDS011;49822;41.468;13.560;2023-11-22T00:16:40;15.27;;;3.33;;
63316;SDS011;49822;41.468;13.560;2023-11-22T00:19:06;20.30;;;4.43;;
63316;SDS011;49822;41.468;13.560;2023-11-22T00:21:32;11.32;;;3.00;;
63316;SDS011;49822;41.468;13.560;2023-11-22T00:23:59;9.65;;;2.35;;
63316;SDS011;49822;41.468;13.560;2023-11-22T00:26:25;18.33;;;3.72;;
63316;SDS011;49822;41.468;13.560;2023-11-22T00:28:56;6.13;;;1.48;;
63316;SDS011;49822;41.468;13.560;2023-11-22T00:31:23;17.73;;;2.05;;
63316;SDS011;49822;41.468;13.560;2023-11-22T00:33:49;6.75;;;1.48;;
63316;SDS011;49822;41.468;13.560;2023-11-22T00:36:16;17.38;;;1.88;;
63316;SDS011;49822;41.468;13.560;2023-11-22T00:38:43;9.40;;;2.15;;
63316;SDS011;49822;41.468;13.560;2023-11-22T00:41:09;12.85;;;1.60;;
63316;SDS011;49822;41.468;13.560;2023-11-22T00:43:36;12.73;;;1.83;;
63316;SDS011;49822;41.468;13.560;2023-11-22T00:46:03;8.73;;;1.80;;
63316;SDS011;49822;41.468;13.560;2023-11-22T00:48:31;12.75;;;2.17;;
63316;SDS011;49822;41.468;13.560;2023-11-22T00:50:58;9.00;;;1.95;;
63316;SDS011;49822;41.468;13.560;2023-11-22T00:53:24;11.60;;;2.00;;
63316;SDS011;49822;41.468;13.560;2023-11-22T00:55:51;5.65;;;1.30;;
63316;SDS011;49822;41.468;13.560;2023-11-22T00:58:18;7.95;;;2.53;;
63316;SDS011;49822;41.468;13.560;2023-11-22T01:00:45;10.60;;;1.98;;
63316;SDS011;49822;41.468;13.560;2023-11-22T01:03:12;7.93;;;1.83;;
63316;SDS011;49822;41.468;13.560;2023-11-22T01:05:40;8.50;;;1.90;;
63316;SDS011;49822;41.468;13.560;2023-11-22T01:08:08;11.02;;;2.38;;
63316;SDS011;49822;41.468;13.560;2023-11-22T01:10:36;10.27;;;2.20;;
63316;SDS011;49822;41.468;13.560;2023-11-22T01:13:02;11.45;;;2.08;;
63316;SDS011;49822;41.468;13.560;2023-11-22T01:15:30;10.05;;;2.60;;
63316;SDS011;49822;41.468;13.560;2023-11-22T01:17:56;15.40;;;5.70;;
63316;SDS011;49822;41.468;13.560;2023-11-22T01:20:24;18.25;;;5.97;;
63316;SDS011;49822;41.468;13.560;2023-11-22T01:22:50;22.42;;;6.07;;
63316;SDS011;49822;41.468;13.560;2023-11-22T01:25:18;14.82;;;6.43;;
63316;SDS011;49822;41.468;13.560;2023-11-22T01:27:45;20.85;;;6.35;;
63316;SDS011;49822;41.468;13.560;2023-11-22T01:30:11;18.63;;;6.20;;
63316;SDS011;49822;41.468;13.560;2023-11-22T01:32:37;17.27;;;5.38;;
63316;SDS011;49822;41.468;13.560;2023-11-22T01:35:04;20.45;;;6.28;;
63316;SDS011;49822;41.468;13.560;2023-11-22T01:37:32;18.48;;;6.47;;
63316;SDS011;49822;41.468;13.560;2023-11-22T01:39:59;17.15;;;6.65;;
63316;SDS011;49822;41.468;13.560;2023-11-22T01:42:27;13.82;;;5.38;;
63316;SDS011;49822;41.468;13.560;2023-11-22T01:44:54;12.35;;;6.13;;
63316;SDS011;49822;41.468;13.560;2023-11-22T01:47:22;18.10;;;6.72;;
63316;SDS011;49822;41.468;13.560;2023-11-22T01:49:49;15.40;;;5.97;;
63316;SDS011;49822;41.468;13.560;2023-11-22T01:52:15;13.68;;;5.40;;
63316;SDS011;49822;41.468;13.560;2023-11-22T01:54:41;13.25;;;5.30;;
63316;SDS011;49822;41.468;13.560;2023-11-22T01:57:09;13.18;;;5.18;;
63316;SDS011;49822;41.468;13.560;2023-11-22T01:59:35;10.40;;;5.10;;
63316;SDS011;49822;41.468;13.560;2023-11-22T02:02:04;11.10;;;4.57;;
63316;SDS011;49822;41.468;13.560;2023-11-22T02:04:31;14.30;;;5.07;;
63316;SDS011;49822;41.468;13.560;2023-11-22T02:06:58;15.70;;;5.03;;
63316;SDS011;49822;41.468;13.560;2023-11-22T02:09:24;13.55;;;4.80;;
63316;SDS011;49822;41.468;13.560;2023-11-22T02:11:50;9.60;;;3.95;;
63316;SDS011;49822;41.468;13.560;2023-11-22T02:14:17;14.10;;;5.25;;
63316;SDS011;49822;41.468;13.560;2023-11-22T02:16:47;11.43;;;5.25;;
63316;SDS011;49822;41.468;13.560;2023-11-22T02:19:16;12.00;;;5.40;;
63316;SDS011;49822;41.468;13.560;2023-11-22T02:21:45;17.80;;;5.60;;
63316;SDS011;49822;41.468;13.560;2023-11-22T02:24:12;13.52;;;4.90;;
63316;SDS011;49822;41.468;13.560;2023-11-22T02:26:42;15.40;;;5.30;;
63316;SDS011;49822;41.468;13.560;2023-11-22T02:29:09;16.98;;;5.32;;
63316;SDS011;49822;41.468;13.560;2023-11-22T02:31:36;15.07;;;4.78;;
63316;SDS011;49822;41.468;13.560;2023-11-22T02:34:02;14.77;;;5.05;;
63316;SDS011;49822;41.468;13.560;2023-11-22T02:36:28;15.18;;;5.03;;
63316;SDS011;49822;41.468;13.560;2023-11-22T02:38:56;14.80;;;4.40;;
63316;SDS011;49822;41.468;13.560;2023-11-22T02:41:23;9.75;;;3.65;;
63316;SDS011;49822;41.468;13.560;2023-11-22T02:43:51;16.08;;;4.90;;
63316;SDS011;49822;41.468;13.560;2023-11-22T02:46:18;11.52;;;3.92;;
63316;SDS011;49822;41.468;13.560;2023-11-22T02:48:44;11.38;;;3.65;;
63316;SDS011;49822;41.468;13.560;2023-11-22T02:51:10;15.52;;;3.80;;
63316;SDS011;49822;41.468;13.560;2023-11-22T02:53:37;12.35;;;3.40;;
63316;SDS011;49822;41.468;13.560;2023-11-22T02:56:05;10.65;;;2.60;;
63316;SDS011;49822;41.468;13.560;2023-11-22T02:58:32;12.45;;;3.30;;
63316;SDS011;49822;41.468;13.560;2023-11-22T03:00:58;10.20;;;2.95;;
63316;SDS011;49822;41.468;13.560;2023-11-22T03:03:26;10.27;;;2.67;;
63316;SDS011;49822;41.468;13.560;2023-11-22T03:05:52;8.23;;;1.88;;
63316;SDS011;49822;41.468;13.560;2023-11-22T03:08:19;4.47;;;1.58;;
63316;SDS011;49822;41.468;13.560;2023-11-22T03:10:45;4.28;;;1.90;;
63316;SDS011;49822;41.468;13.560;2023-11-22T03:13:12;8.90;;;2.80;;
63316;SDS011;49822;41.468;13.560;2023-11-22T03:15:38;11.82;;;1.90;;
63316;SDS011;49822;41.468;13.560;2023-11-22T03:20:36;9.05;;;1.50;;
63316;SDS011;49822;41.468;13.560;2023-11-22T03:23:04;6.15;;;1.58;;
63316;SDS011;49822;41.468;13.560;2023-11-22T03:25:30;13.80;;;2.05;;
63316;SDS011;49822;41.468;13.560;2023-11-22T03:27:56;9.60;;;2.00;;
63316;SDS011;49822;41.468;13.560;2023-11-22T03:30:23;4.00;;;1.42;;
63316;SDS011;49822;41.468;13.560;2023-11-22T03:32:49;4.60;;;1.70;;
63316;SDS011;49822;41.468;13.560;2023-11-22T03:35:17;5.70;;;2.13;;
63316;SDS011;49822;41.468;13.560;2023-11-22T03:37:43;5.85;;;1.63;;
63316;SDS011;49822;41.468;13.560;2023-11-22T03:40:10;10.13;;;2.05;;
63316;SDS011;49822;41.468;13.560;2023-11-22T03:42:36;9.98;;;1.35;;
63316;SDS011;49822;41.468;13.560;2023-11-22T03:45:04;3.53;;;1.42;;
63316;SDS011;49822;41.468;13.560;2023-11-22T03:47:32;2.75;;;1.45;;
63316;SDS011;49822;41.468;13.560;2023-11-22T03:49:59;6.05;;;1.63;;
63316;SDS011;49822;41.468;13.560;2023-11-22T03:52:25;6.88;;;2.00;;
63316;SDS011;49822;41.468;13.560;2023-11-22T03:54:54;10.05;;;2.05;;
63316;SDS011;49822;41.468;13.560;2023-11-22T03:57:20;6.95;;;2.25;;
63316;SDS011;49822;41.468;13.560;2023-11-22T03:59:46;14.25;;;2.30;;
63316;SDS011;49822;41.468;13.560;2023-11-22T04:02:13;7.65;;;1.90;;
63316;SDS011;49822;41.468;13.560;2023-11-22T04:04:39;7.85;;;1.73;;
63316;SDS011;49822;41.468;13.560;2023-11-22T04:07:06;6.40;;;1.45;;
63316;SDS011;49822;41.468;13.560;2023-11-22T04:09:33;4.18;;;1.08;;
63316;SDS011;49822;41.468;13.560;2023-11-22T04:11:59;4.25;;;1.42;;
63316;SDS011;49822;41.468;13.560;2023-11-22T04:14:25;5.00;;;1.73;;
63316;SDS011;49822;41.468;13.560;2023-11-22T04:16:52;3.92;;;1.45;;
63316;SDS011;49822;41.468;13.560;2023-11-22T04:19:19;4.25;;;1.40;;
63316;SDS011;49822;41.468;13.560;2023-11-22T04:21:46;5.47;;;1.55;;
63316;SDS011;49822;41.468;13.560;2023-11-22T04:24:12;2.67;;;1.33;;
63316;SDS011;49822;41.468;13.560;2023-11-22T04:26:38;4.90;;;1.30;;
63316;SDS011;49822;41.468;13.560;2023-11-22T04:29:04;9.15;;;2.00;;
63316;SDS011;49822;41.468;13.560;2023-11-22T04:31:30;6.65;;;1.70;;
63316;SDS011;49822;41.468;13.560;2023-11-22T04:33:56;7.28;;;1.35;;
63316;SDS011;49822;41.468;13.560;2023-11-22T04:36:24;4.28;;;1.10;;
63316;SDS011;49822;41.468;13.560;2023-11-22T04:38:50;4.72;;;1.20;;
63316;SDS011;49822;41.468;13.560;2023-11-22T04:41:17;3.83;;;0.98;;
63316;SDS011;49822;41.468;13.560;2023-11-22T04:43:44;4.75;;;1.05;;
63316;SDS011;49822;41.468;13.560;2023-11-22T04:46:12;6.15;;;1.30;;
63316;SDS011;49822;41.468;13.560;2023-11-22T04:48:38;3.08;;;1.17;;
63316;SDS011;49822;41.468;13.560;2023-11-22T04:51:05;4.70;;;0.95;;
63316;SDS011;49822;41.468;13.560;2023-11-22T04:53:32;11.85;;;1.40;;
63316;SDS011;49822;41.468;13.560;2023-11-22T04:55:58;10.48;;;2.40;;
63316;SDS011;49822;41.468;13.560;2023-11-22T04:58:24;6.13;;;2.10;;
63316;SDS011;49822;41.468;13.560;2023-11-22T05:00:51;4.43;;;1.65;;
63316;SDS011;49822;41.468;13.560;2023-11-22T05:03:18;7.97;;;1.80;;
63316;SDS011;49822;41.468;13.560;2023-11-22T05:05:44;9.85;;;2.13;;
63316;SDS011;49822;41.468;13.560;2023-11-22T05:08:10;7.78;;;1.90;;
63316;SDS011;49822;41.468;13.560;2023-11-22T05:10:36;2.67;;;1.23;;
63316;SDS011;49822;41.468;13.560;2023-11-22T05:13:03;9.52;;;1.58;;
63316;SDS011;49822;41.468;13.560;2023-11-22T05:15:30;3.00;;;1.08;;
63316;SDS011;49822;41.468;13.560;2023-11-22T05:17:57;6.90;;;1.35;;
63316;SDS011;49822;41.468;13.560;2023-11-22T05:20:23;17.75;;;1.95;;
63316;SDS011;49822;41.468;13.560;2023-11-22T05:22:49;5.25;;;1.10;;
63316;SDS011;49822;41.468;13.560;2023-11-22T05:25:15;6.22;;;1.50;;
63316;SDS011;49822;41.468;13.560;2023-11-22T05:27:41;8.95;;;1.55;;
63316;SDS011;49822;41.468;13.560;2023-11-22T05:30:07;4.18;;;1.45;;
63316;SDS011;49822;41.468;13.560;2023-11-22T05:32:36;3.70;;;1.20;;
63316;SDS011;49822;41.468;13.560;2023-11-22T05:35:02;5.78;;;1.33;;
63316;SDS011;49822;41.468;13.560;2023-11-22T05:37:35;3.33;;;1.00;;
63316;SDS011;49822;41.468;13.560;2023-11-22T05:40:02;2.15;;;0.90;;
63316;SDS011;49822;41.468;13.560;2023-11-22T05:42:30;5.38;;;0.70;;
63316;SDS011;49822;41.468;13.560;2023-11-22T05:44:58;3.15;;;0.73;;
63316;SDS011;49822;41.468;13.560;2023-11-22T05:47:24;2.30;;;0.73;;
63316;SDS011;49822;41.468;13.560;2023-11-22T05:49:50;2.85;;;0.98;;
63316;SDS011;49822;41.468;13.560;2023-11-22T05:52:17;4.70;;;0.60;;
63316;SDS011;49822;41.468;13.560;2023-11-22T05:54:44;3.58;;;0.90;;
63316;SDS011;49822;41.468;13.560;2023-11-22T05:57:10;3.05;;;0.40;;
63316;SDS011;49822;41.468;13.560;2023-11-22T05:59:36;3.15;;;0.63;;
63316;SDS011;49822;41.468;13.560;2023-11-22T06:02:02;1.35;;;0.70;;
63316;SDS011;49822;41.468;13.560;2023-11-22T06:04:28;9.95;;;3.08;;
63316;SDS011;49822;41.468;13.560;2023-11-22T06:06:56;34.53;;;12.73;;
63316;SDS011;49822;41.468;13.560;2023-11-22T06:09:22;13.32;;;3.65;;
63316;SDS011;49822;41.468;13.560;2023-11-22T06:11:48;18.92;;;7.35;;
63316;SDS011;49822;41.468;13.560;2023-11-22T06:14:14;16.08;;;3.75;;
63316;SDS011;49822;41.468;13.560;2023-11-22T06:16:40;8.05;;;2.92;;
63316;SDS011;49822;41.468;13.560;2023-11-22T06:19:07;17.08;;;6.13;;
63316;SDS011;49822;41.468;13.560;2023-11-22T06:21:33;24.13;;;8.65;;
63316;SDS011;49822;41.468;13.560;2023-11-22T06:24:01;34.85;;;12.40;;
63316;SDS011;49822;41.468;13.560;2023-11-22T06:26:29;21.23;;;6.38;;
63316;SDS011;49822;41.468;13.560;2023-11-22T06:28:55;7.18;;;2.38;;
63316;SDS011;49822;41.468;13.560;2023-11-22T06:31:22;6.15;;;2.50;;
63316;SDS011;49822;41.468;13.560;2023-11-22T06:33:48;7.53;;;2.70;;
63316;SDS011;49822;41.468;13.560;2023-11-22T06:36:15;7.78;;;3.72;;
63316;SDS011;49822;41.468;13.560;2023-11-22T06:38:41;11.27;;;3.85;;
63316;SDS011;49822;41.468;13.560;2023-11-22T06:41:07;10.05;;;2.13;;
63316;SDS011;49822;41.468;13.560;2023-11-22T06:43:33;6.85;;;3.22;;
63316;SDS011;49822;41.468;13.560;2023-11-22T06:45:59;11.38;;;3.15;;
63316;SDS011;49822;41.468;13.560;2023-11-22T06:48:26;10.85;;;3.42;;
63316;SDS011;49822;41.468;13.560;2023-11-22T06:50:52;11.00;;;3.33;;
63316;SDS011;49822;41.468;13.560;2023-11-22T06:53:18;4.40;;;1.85;;
63316;SDS011;49822;41.468;13.560;2023-11-22T06:55:45;5.80;;;1.55;;
63316;SDS011;49822;41.468;13.560;2023-11-22T06:58:12;7.65;;;2.05;;
63316;SDS011;49822;41.468;13.560;2023-11-22T07:00:40;3.75;;;2.17;;
63316;SDS011;49822;41.468;13.560;2023-11-22T07:03:10;6.43;;;2.50;;
63316;SDS011;49822;41.468;13.560;2023-11-22T07:05:37;7.75;;;2.33;;
63316;SDS011;49822;41.468;13.560;2023-11-22T07:08:05;5.40;;;2.17;;
63316;SDS011;49822;41.468;13.560;2023-11-22T07:10:31;8.15;;;2.85;;
63316;SDS011;49822;41.468;13.560;2023-11-22T07:13:00;6.88;;;2.40;;
63316;SDS011;49822;41.468;13.560;2023-11-22T07:15:27;4.95;;;2.45;;
63316;SDS011;49822;41.468;13.560;2023-11-22T07:17:53;6.57;;;2.63;;
63316;SDS011;49822;41.468;13.560;2023-11-22T07:20:20;14.60;;;5.78;;
63316;SDS011;49822;41.468;13.560;2023-11-22T07:22:46;7.63;;;3.75;;
63316;SDS011;49822;41.468;13.560;2023-11-22T07:25:19;7.57;;;2.25;;
63316;SDS011;49822;41.468;13.560;2023-11-22T07:27:50;24.00;;;2.10;;
63316;SDS011;49822;41.468;13.560;2023-11-22T07:30:20;7.85;;;2.55;;
63316;SDS011;49822;41.468;13.560;2023-11-22T07:32:52;8.00;;;1.90;;
63316;SDS011;49822;41.468;13.560;2023-11-22T07:35:19;6.18;;;2.65;;
63316;SDS011;49822;41.468;13.560;2023-11-22T07:37:46;3.33;;;2.00;;
63316;SDS011;49822;41.468;13.560;2023-11-22T07:40:14;10.10;;;2.17;;
63316;SDS011;49822;41.468;13.560;2023-11-22T07:42:40;1.95;;;1.75;;
63316;SDS011;49822;41.468;13.560;2023-11-22T07:45:08;4.20;;;1.77;;
63316;SDS011;49822;41.468;13.560;2023-11-22T07:47:37;7.15;;;2.88;;
63316;SDS011;49822;41.468;13.560;2023-11-22T07:50:08;6.00;;;2.80;;
63316;SDS011;49822;41.468;13.560;2023-11-22T07:52:37;5.93;;;2.97;;
63316;SDS011;49822;41.468;13.560;2023-11-22T07:55:07;6.25;;;2.78;;
63316;SDS011;49822;41.468;13.560;2023-11-22T07:57:34;10.35;;;3.55;;
63316;SDS011;49822;41.468;13.560;2023-11-22T08:00:00;6.13;;;2.80;;
63316;SDS011;49822;41.468;13.560;2023-11-22T08:02:37;5.63;;;3.10;;
63316;SDS011;49822;41.468;13.560;2023-11-22T08:05:08;9.32;;;3.63;;
63316;SDS011;49822;41.468;13.560;2023-11-22T08:07:35;9.20;;;3.00;;
63316;SDS011;49822;41.468;13.560;2023-11-22T08:10:05;6.82;;;3.00;;
63316;SDS011;49822;41.468;13.560;2023-11-22T08:12:37;9.18;;;3.67;;
63316;SDS011;49822;41.468;13.560;2023-11-22T08:15:04;7.97;;;3.45;;
63316;SDS011;49822;41.468;13.560;2023-11-22T08:17:34;6.32;;;2.97;;
63316;SDS011;49822;41.468;13.560;2023-11-22T08:20:01;7.18;;;3.50;;
63316;SDS011;49822;41.468;13.560;2023-11-22T08:22:28;6.55;;;3.03;;
63316;SDS011;49822;41.468;13.560;2023-11-22T08:24:54;6.38;;;2.72;;
63316;SDS011;49822;41.468;13.560;2023-11-22T08:27:23;6.70;;;2.85;;
63316;SDS011;49822;41.468;13.560;2023-11-22T08:29:49;7.15;;;3.30;;
63316;SDS011;49822;41.468;13.560;2023-11-22T08:32:16;11.18;;;3.40;;
63316;SDS011;49822;41.468;13.560;2023-11-22T08:34:43;6.22;;;3.60;;
63316;SDS011;49822;41.468;13.560;2023-11-22T08:37:11;30.80;;;5.97;;
63316;SDS011;49822;41.468;13.560;2023-11-22T08:39:37;12.45;;;4.53;;
63316;SDS011;49822;41.468;13.560;2023-11-22T08:42:04;9.95;;;3.35;;
63316;SDS011;49822;41.468;13.560;2023-11-22T08:44:37;8.82;;;3.67;;
63316;SDS011;49822;41.468;13.560;2023-11-22T08:47:03;9.52;;;3.10;;
63316;SDS011;49822;41.468;13.560;2023-11-22T08:49:30;7.22;;;3.08;;
63316;SDS011;49822;41.468;13.560;2023-11-22T08:51:56;9.88;;;2.83;;
63316;SDS011;49822;41.468;13.560;2023-11-22T08:54:25;7.38;;;2.85;;
63316;SDS011;49822;41.468;13.560;2023-11-22T08:56:54;8.35;;;3.00;;
63316;SDS011;49822;41.468;13.560;2023-11-22T08:59:23;6.30;;;2.85;;
63316;SDS011;49822;41.468;13.560;2023-11-22T09:01:50;6.10;;;2.78;;
63316;SDS011;49822;41.468;13.560;2023-11-22T09:04:16;6.57;;;2.67;;
63316;SDS011;49822;41.468;13.560;2023-11-22T09:06:44;8.85;;;2.60;;
63316;SDS011;49822;41.468;13.560;2023-11-22T09:09:13;5.93;;;2.60;;
63316;SDS011;49822;41.468;13.560;2023-11-22T09:11:41;5.35;;;2.22;;
63316;SDS011;49822;41.468;13.560;2023-11-22T09:14:07;3.72;;;1.85;;
63316;SDS011;49822;41.468;13.560;2023-11-22T09:16:36;8.05;;;2.35;;
63316;SDS011;49822;41.468;13.560;2023-11-22T09:19:04;5.20;;;2.00;;
63316;SDS011;49822;41.468;13.560;2023-11-22T09:21:33;4.95;;;2.00;;
63316;SDS011;49822;41.468;13.560;2023-11-22T09:23:59;3.97;;;1.52;;
63316;SDS011;49822;41.468;13.560;2023-11-22T09:30:13;7.72;;;1.42;;
63316;SDS011;49822;41.468;13.560;2023-11-22T09:32:45;4.95;;;1.33;;
63316;SDS011;49822;41.468;13.560;2023-11-22T09:35:13;4.55;;;1.42;;
63316;SDS011;49822;41.468;13.560;2023-11-22T09:37:40;5.70;;;1.75;;
63316;SDS011;49822;41.468;13.560;2023-11-22T09:40:08;4.00;;;1.40;;
63316;SDS011;49822;41.468;13.560;2023-11-22T09:42:36;4.93;;;1.23;;
63316;SDS011;49822;41.468;13.560;2023-11-22T09:45:02;4.25;;;1.25;;
63316;SDS011;49822;41.468;13.560;2023-11-22T09:47:32;2.42;;;0.98;;
63316;SDS011;49822;41.468;13.560;2023-11-22T09:50:01;3.53;;;1.40;;
63316;SDS011;49822;41.468;13.560;2023-11-22T09:52:33;15.77;;;6.65;;
63316;SDS011;49822;41.468;13.560;2023-11-22T09:55:02;9.07;;;3.28;;
63316;SDS011;49822;41.468;13.560;2023-11-22T09:57:31;5.68;;;1.25;;
63316;SDS011;49822;41.468;13.560;2023-11-22T09:59:59;2.70;;;0.88;;
63316;SDS011;49822;41.468;13.560;2023-11-22T10:02:29;23.98;;;9.38;;
63316;SDS011;49822;41.468;13.560;2023-11-22T10:04:57;11.55;;;3.22;;
63316;SDS011;49822;41.468;13.560;2023-11-22T10:07:24;13.05;;;4.28;;
63316;SDS011;49822;41.468;13.560;2023-11-22T10:09:50;5.38;;;1.75;;
63316;SDS011;49822;41.468;13.560;2023-11-22T10:12:19;11.55;;;3.92;;
63316;SDS011;49822;41.468;13.560;2023-11-22T10:14:47;18.27;;;5.97;;
63316;SDS011;49822;41.468;13.560;2023-11-22T10:17:18;95.28;;;30.58;;
63316;SDS011;49822;41.468;13.560;2023-11-22T10:19:45;17.08;;;5.80;;
63316;SDS011;49822;41.468;13.560;2023-11-22T10:22:11;10.55;;;3.75;;
63316;SDS011;49822;41.468;13.560;2023-11-22T10:24:42;4.45;;;1.35;;
63316;SDS011;49822;41.468;13.560;2023-11-22T10:27:09;4.22;;;1.33;;
63316;SDS011;49822;41.468;13.560;2023-11-22T10:29:36;3.08;;;0.77;;
63316;SDS011;49822;41.468;13.560;2023-11-22T10:32:02;1.83;;;0.70;;
63316;SDS011;49822;41.468;13.560;2023-11-22T10:34:29;2.35;;;0.82;;
63316;SDS011;49822;41.468;13.560;2023-11-22T10:36:56;2.22;;;0.90;;
63316;SDS011;49822;41.468;13.560;2023-11-22T10:39:22;2.38;;;0.43;;
63316;SDS011;49822;41.468;13.560;2023-11-22T10:41:56;2.17;;;0.68;;
63316;SDS011;49822;41.468;13.560;2023-11-22T10:44:25;3.72;;;0.80;;
63316;SDS011;49822;41.468;13.560;2023-11-22T10:46:51;2.20;;;0.70;;
63316;SDS011;49822;41.468;13.560;2023-11-22T10:49:18;1.00;;;0.50;;
63316;SDS011;49822;41.468;13.560;2023-11-22T10:51:44;2.00;;;0.55;;
63316;SDS011;49822;41.468;13.560;2023-11-22T10:54:17;1.63;;;0.60;;
63316;SDS011;49822;41.468;13.560;2023-11-22T10:56:46;3.05;;;1.65;;
63316;SDS011;49822;41.468;13.560;2023-11-22T10:59:25;4.22;;;2.38;;
63316;SDS011;49822;41.468;13.560;2023-11-22T11:01:53;5.70;;;1.30;;
63316;SDS011;49822;41.468;13.560;2023-11-22T11:04:27;11.35;;;4.55;;
63316;SDS011;49822;41.468;13.560;2023-11-22T11:07:01;6.25;;;3.28;;
63316;SDS011;49822;41.468;13.560;2023-11-22T11:09:28;4.28;;;3.05;;
63316;SDS011;49822;41.468;13.560;2023-11-22T11:11:58;5.55;;;1.67;;
63316;SDS011;49822;41.468;13.560;2023-11-22T11:14:29;5.18;;;1.10;;
63316;SDS011;49822;41.468;13.560;2023-11-22T11:16:56;1.08;;;0.68;;
63316;SDS011;49822;41.468;13.560;2023-11-22T11:19:23;2.92;;;1.58;;
63316;SDS011;49822;41.468;13.560;2023-11-22T11:21:51;10.00;;;2.08;;
63316;SDS011;49822;41.468;13.560;2023-11-22T11:24:19;1.83;;;1.02;;
63316;SDS011;49822;41.468;13.560;2023-11-22T11:26:49;2.10;;;0.88;;
63316;SDS011;49822;41.468;13.560;2023-11-22T11:29:32;3.20;;;1.17;;
63316;SDS011;49822;41.468;13.560;2023-11-22T11:31:59;3.38;;;0.70;;
63316;SDS011;49822;41.468;13.560;2023-11-22T11:34:28;2.22;;;0.82;;
63316;SDS011;49822;41.468;13.560;2023-11-22T11:36:58;2.83;;;0.70;;
63316;SDS011;49822;41.468;13.560;2023-11-22T11:39:26;2.15;;;0.50;;
63316;SDS011;49822;41.468;13.560;2023-11-22T11:42:30;3.78;;;0.93;;
63316;SDS011;49822;41.468;13.560;2023-11-22T11:47:22;2.47;;;0.80;;
63316;SDS011;49822;41.468;13.560;2023-11-22T11:49:51;4.43;;;0.80;;
63316;SDS011;49822;41.468;13.560;2023-11-22T11:52:17;3.42;;;0.98;;
63316;SDS011;49822;41.468;13.560;2023-11-22T11:54:44;1.27;;;0.65;;
63316;SDS011;49822;41.468;13.560;2023-11-22T11:57:10;2.92;;;0.63;;
63316;SDS011;49822;41.468;13.560;2023-11-22T11:59:37;4.20;;;0.95;;
63316;SDS011;49822;41.468;13.560;2023-11-22T12:02:03;0.65;;;0.40;;
63316;SDS011;49822;41.468;13.560;2023-11-22T12:04:31;7.93;;;1.00;;
63316;SDS011;49822;41.468;13.560;2023-11-22T12:07:00;6.25;;;1.20;;
63316;SDS011;49822;41.468;13.560;2023-11-22T12:09:26;2.45;;;1.00;;
63316;SDS011;49822;41.468;13.560;2023-11-22T12:11:55;5.57;;;1.10;;
63316;SDS011;49822;41.468;13.560;2023-11-22T12:14:22;2.47;;;0.98;;
63316;SDS011;49822;41.468;13.560;2023-11-22T12:16:51;3.28;;;0.95;;
63316;SDS011;49822;41.468;13.560;2023-11-22T12:19:23;5.88;;;1.90;;
63316;SDS011;49822;41.468;13.560;2023-11-22T12:21:53;2.83;;;1.35;;
63316;SDS011;49822;41.468;13.560;2023-11-22T12:24:19;2.58;;;0.82;;
63316;SDS011;49822;41.468;13.560;2023-11-22T12:26:46;4.40;;;1.60;;
63316;SDS011;49822;41.468;13.560;2023-11-22T12:29:19;2.60;;;0.63;;
63316;SDS011;49822;41.468;13.560;2023-11-22T12:31:50;4.78;;;1.00;;
63316;SDS011;49822;41.468;13.560;2023-11-22T12:34:20;5.05;;;1.05;;
63316;SDS011;49822;41.468;13.560;2023-11-22T12:36:48;5.70;;;1.17;;
63316;SDS011;49822;41.468;13.560;2023-11-22T12:39:15;2.25;;;0.80;;
63316;SDS011;49822;41.468;13.560;2023-11-22T12:41:49;2.60;;;0.93;;
63316;SDS011;49822;41.468;13.560;2023-11-22T12:44:17;2.10;;;0.80;;
63316;SDS011;49822;41.468;13.560;2023-11-22T12:49:20;5.55;;;0.93;;
63316;SDS011;49822;41.468;13.560;2023-11-22T12:51:51;1.40;;;0.70;;
63316;SDS011;49822;41.468;13.560;2023-11-22T12:54:23;0.93;;;0.60;;
63316;SDS011;49822;41.468;13.560;2023-11-22T12:56:50;1.90;;;0.65;;
63316;SDS011;49822;41.468;13.560;2023-11-22T12:59:19;2.95;;;0.90;;
63316;SDS011;49822;41.468;13.560;2023-11-22T13:01:45;5.95;;;1.75;;
63316;SDS011;49822;41.468;13.560;2023-11-22T13:04:12;6.63;;;1.48;;
63316;SDS011;49822;41.468;13.560;2023-11-22T13:06:40;1.52;;;0.85;;
63316;SDS011;49822;41.468;13.560;2023-11-22T13:09:07;5.65;;;1.33;;
63316;SDS011;49822;41.468;13.560;2023-11-22T13:11:40;4.80;;;1.42;;
63316;SDS011;49822;41.468;13.560;2023-11-22T13:14:08;3.08;;;0.68;;
63316;SDS011;49822;41.468;13.560;2023-11-22T13:16:34;2.65;;;0.75;;
63316;SDS011;49822;41.468;13.560;2023-11-22T13:19:02;1.55;;;0.63;;
63316;SDS011;49822;41.468;13.560;2023-11-22T13:21:29;4.78;;;0.95;;
63316;SDS011;49822;41.468;13.560;2023-11-22T13:23:57;7.05;;;1.02;;
63316;SDS011;49822;41.468;13.560;2023-11-22T13:26:26;6.38;;;1.05;;
63316;SDS011;49822;41.468;13.560;2023-11-22T13:28:52;2.60;;;0.60;;
63316;SDS011;49822;41.468;13.560;2023-11-22T13:31:20;2.45;;;0.60;;
63316;SDS011;49822;41.468;13.560;2023-11-22T13:33:50;2.88;;;0.98;;
63316;SDS011;49822;41.468;13.560;2023-11-22T13:36:16;2.10;;;0.73;;
63316;SDS011;49822;41.468;13.560;2023-11-22T13:38:42;1.77;;;0.80;;
63316;SDS011;49822;41.468;13.560;2023-11-22T13:41:08;3.05;;;1.13;;
63316;SDS011;49822;41.468;13.560;2023-11-22T13:43:35;2.20;;;1.00;;
63316;SDS011;49822;41.468;13.560;2023-11-22T13:46:01;3.70;;;0.90;;
63316;SDS011;49822;41.468;13.560;2023-11-22T13:48:27;2.90;;;1.25;;
63316;SDS011;49822;41.468;13.560;2023-11-22T13:50:53;2.25;;;0.90;;
63316;SDS011;49822;41.468;13.560;2023-11-22T13:53:19;4.38;;;1.30;;
63316;SDS011;49822;41.468;13.560;2023-11-22T13:55:47;4.75;;;1.55;;
63316;SDS011;49822;41.468;13.560;2023-11-22T13:58:16;11.25;;;2.22;;
63316;SDS011;49822;41.468;13.560;2023-11-22T14:00:42;6.93;;;1.75;;
63316;SDS011;49822;41.468;13.560;2023-11-22T14:03:10;13.32;;;3.80;;
63316;SDS011;49822;41.468;13.560;2023-11-22T14:05:36;5.43;;;2.20;;
63316;SDS011;49822;41.468;13.560;2023-11-22T14:08:04;7.93;;;2.45;;
63316;SDS011;49822;41.468;13.560;2023-11-22T14:10:34;10.23;;;4.00;;
63316;SDS011;49822;41.468;13.560;2023-11-22T14:13:01;13.27;;;5.40;;
63316;SDS011;49822;41.468;13.560;2023-11-22T14:15:28;8.82;;;3.35;;
63316;SDS011;49822;41.468;13.560;2023-11-22T14:17:54;5.30;;;1.73;;
63316;SDS011;49822;41.468;13.560;2023-11-22T14:20:21;4.22;;;1.95;;
63316;SDS011;49822;41.468;13.560;2023-11-22T14:22:47;3.35;;;1.70;;
63316;SDS011;49822;41.468;13.560;2023-11-22T14:25:13;5.20;;;1.50;;
63316;SDS011;49822;41.468;13.560;2023-11-22T14:27:41;6.72;;;1.35;;
63316;SDS011;49822;41.468;13.560;2023-11-22T14:30:12;1.38;;;1.00;;
63316;SDS011;49822;41.468;13.560;2023-11-22T14:32:41;5.38;;;1.63;;
63316;SDS011;49822;41.468;13.560;2023-11-22T14:35:10;2.47;;;1.43;;
63316;SDS011;49822;41.468;13.560;2023-11-22T14:37:37;12.38;;;6.10;;
63316;SDS011;49822;41.468;13.560;2023-11-22T14:40:05;9.45;;;4.78;;
63316;SDS011;49822;41.468;13.560;2023-11-22T14:42:39;15.02;;;7.32;;
63316;SDS011;49822;41.468;13.560;2023-11-22T14:45:08;12.85;;;6.43;;